Time;durP1;ratioP1;P1;durP2;ratioP2;P2;SDS_P1;SDS_P2;PMS_P1;PMS_P2;Temp;Humidity;BMP_temperature;BMP_pressure;BME280_temperature;BME280_humidity;BME280_pressure;Samples;Min_cycle;Max_cycle;Signal;HPM_P1;HPM_P2
2021/01/12 00:02:24;;;;;;;94.13;47.47;;;-1.80;86.60;;;;;;4963946;28;20062;-86
2021/01/12 00:04:51;;;;;;;96.20;46.95;;;-1.80;86.90;;;;;;4966087;28;20037;-86
2021/01/12 00:07:23;;;;;;;97.68;48.67;;;-1.80;86.90;;;;;;4961726;28;20041;-86
2021/01/12 00:09:50;;;;;;;98.18;48.83;;;-1.80;86.90;;;;;;4961855;28;20049;-87
2021/01/12 00:12:18;;;;;;;98.93;48.78;;;-1.80;86.90;;;;;;4965524;28;20101;-86
2021/01/12 00:14:44;;;;;;;95.32;45.55;;;-1.80;87.00;;;;;;4964601;28;20039;-86
2021/01/12 00:17:10;;;;;;;90.88;45.83;;;-1.80;87.00;;;;;;4963145;28;20047;-86
2021/01/12 00:19:36;;;;;;;99.97;48.58;;;-1.80;86.70;;;;;;4960799;28;20053;-86
2021/01/12 00:22:14;;;;;;;94.63;45.75;;;-1.80;86.80;;;;;;4964651;28;20034;-87
2021/01/12 00:24:41;;;;;;;93.65;45.47;;;-1.80;86.60;;;;;;4964830;28;20023;-86
2021/01/12 00:27:07;;;;;;;106.22;48.58;;;-1.80;86.90;;;;;;4964786;28;20027;-86
2021/01/12 00:29:33;;;;;;;88.43;46.08;;;-1.90;86.80;;;;;;4964587;28;20026;-85
2021/01/12 00:31:58;;;;;;;89.32;46.85;;;-1.90;86.80;;;;;;4964593;28;20038;-88
2021/01/12 00:34:24;;;;;;;93.00;45.88;;;-1.90;87.00;;;;;;4964613;28;20398;-86
2021/01/12 00:36:51;;;;;;;96.03;46.83;;;-1.90;87.00;;;;;;4964402;28;20051;-86
2021/01/12 00:39:19;;;;;;;91.25;45.95;;;-1.90;87.00;;;;;;4963412;28;20027;-86
2021/01/12 00:41:53;;;;;;;93.70;45.85;;;-2.00;87.20;;;;;;4965105;28;20049;-86
2021/01/12 00:44:18;;;;;;;90.57;44.88;;;-2.00;87.20;;;;;;4965241;28;20031;-86
2021/01/12 00:46:45;;;;;;;90.35;43.70;;;-1.90;87.30;;;;;;4962828;28;20552;-87
2021/01/12 00:49:12;;;;;;;90.93;43.60;;;-2.00;87.10;;;;;;4963168;28;20082;-88
2021/01/12 00:51:39;;;;;;;79.40;41.05;;;-2.00;87.00;;;;;;4963633;28;20110;-87
2021/01/12 00:54:10;;;;;;;86.72;42.50;;;-2.00;87.30;;;;;;4962923;28;20027;-86
2021/01/12 00:56:36;;;;;;;95.18;44.67;;;-2.00;87.30;;;;;;4957808;28;20097;-88
2021/01/12 00:59:02;;;;;;;80.55;40.88;;;-2.10;87.40;;;;;;4962705;28;20035;-87
2021/01/12 01:01:27;;;;;;;81.22;41.15;;;-2.10;87.10;;;;;;4959422;28;20031;-87
2021/01/12 01:03:53;;;;;;;84.60;42.03;;;-2.10;87.20;;;;;;4979168;28;20049;-86
2021/01/12 01:06:20;;;;;;;77.88;40.42;;;-2.10;87.40;;;;;;4981968;28;20038;-87
2021/01/12 01:08:46;;;;;;;81.72;41.13;;;-2.10;87.60;;;;;;4980505;28;20581;-87
2021/01/12 01:11:11;;;;;;;81.88;41.97;;;-2.10;87.70;;;;;;4980035;28;20065;-85
2021/01/12 01:13:37;;;;;;;80.68;39.83;;;-2.10;87.90;;;;;;4984066;28;20415;-86
2021/01/12 01:16:03;;;;;;;83.05;39.95;;;-2.20;87.80;;;;;;4982173;28;20387;-87
2021/01/12 01:18:29;;;;;;;80.47;39.25;;;-2.20;87.50;;;;;;4986822;28;20494;-86
2021/01/12 01:20:54;;;;;;;82.25;39.83;;;-2.20;87.70;;;;;;4968342;28;20389;-87
2021/01/12 01:23:20;;;;;;;70.78;39.13;;;-2.20;87.80;;;;;;4984449;28;20026;-87
2021/01/12 01:25:46;;;;;;;81.97;40.58;;;-2.30;87.60;;;;;;4968524;28;20034;-86
2021/01/12 01:28:11;;;;;;;81.88;40.85;;;-2.20;87.90;;;;;;4985310;28;20026;-88
2021/01/12 01:30:37;;;;;;;74.43;40.53;;;-2.20;88.00;;;;;;4986345;28;20490;-86
2021/01/12 01:33:03;;;;;;;67.82;36.85;;;-2.20;87.70;;;;;;4985840;28;20031;-86
2021/01/12 01:35:29;;;;;;;77.60;36.45;;;-2.30;87.90;;;;;;4984346;28;20026;-86
2021/01/12 01:37:56;;;;;;;78.07;37.53;;;-2.30;87.80;;;;;;4983562;28;20046;-87
2021/01/12 01:40:24;;;;;;;76.45;39.05;;;-2.20;87.60;;;;;;4983142;28;20101;-86
2021/01/12 01:42:51;;;;;;;76.80;38.03;;;-2.20;87.70;;;;;;4987197;28;20046;-86
2021/01/12 01:45:17;;;;;;;77.10;37.83;;;-2.20;87.80;;;;;;4982954;28;20010;-86
2021/01/12 01:47:45;;;;;;;74.32;36.15;;;-2.30;88.00;;;;;;4982958;28;20374;-85
2021/01/12 01:50:15;;;;;;;69.55;36.40;;;-2.30;87.60;;;;;;4984369;28;20088;-88
2021/01/12 01:52:44;;;;;;;70.47;36.95;;;-2.30;87.70;;;;;;4983198;28;20030;-88
2021/01/12 01:55:12;;;;;;;68.82;37.33;;;-2.30;87.70;;;;;;4982488;28;20474;-87
2021/01/12 01:57:39;;;;;;;82.38;39.80;;;-2.30;87.50;;;;;;4985020;28;20038;-87
2021/01/12 02:00:06;;;;;;;76.30;38.33;;;-2.30;87.60;;;;;;4964827;28;20031;-87
2021/01/12 02:02:53;;;;;;;76.28;37.60;;;-2.30;87.70;;;;;;4981031;28;20447;-86
2021/01/12 02:05:23;;;;;;;71.70;36.67;;;-2.30;87.60;;;;;;4985561;28;20030;-86
2021/01/12 02:07:52;;;;;;;73.50;36.85;;;-2.30;87.50;;;;;;4982730;28;20085;-86
2021/01/12 02:10:19;;;;;;;64.28;33.75;;;-2.30;87.90;;;;;;4982557;28;20022;-87
2021/01/12 02:13:13;;;;;;;64.60;35.55;;;-2.30;87.60;;;;;;4977711;28;20760;-87
2021/01/12 02:15:39;;;;;;;70.28;35.95;;;-2.30;87.30;;;;;;4983924;28;20058;-86
2021/01/12 02:18:07;;;;;;;67.60;33.72;;;-2.30;87.40;;;;;;4989163;28;20029;-87
2021/01/12 02:20:33;;;;;;;70.18;35.75;;;-2.30;87.50;;;;;;4978935;28;20023;-87
2021/01/12 02:23:05;;;;;;;68.72;34.88;;;-2.30;87.80;;;;;;4985451;28;21002;-87
2021/01/12 02:25:33;;;;;;;67.30;36.08;;;-2.30;87.40;;;;;;4980551;28;20360;-86
2021/01/12 02:28:00;;;;;;;69.28;35.05;;;-2.30;87.30;;;;;;4977875;28;20034;-86
2021/01/12 02:30:26;;;;;;;68.97;35.55;;;-2.30;87.30;;;;;;4978857;28;20027;-86
2021/01/12 02:32:52;;;;;;;69.85;36.13;;;-2.30;87.40;;;;;;4987787;28;20022;-87
2021/01/12 02:35:21;;;;;;;63.55;33.58;;;-2.40;87.50;;;;;;4983095;28;20027;-87
2021/01/12 02:37:47;;;;;;;73.47;35.85;;;-2.30;87.60;;;;;;4983423;28;20026;-86
2021/01/12 02:40:13;;;;;;;68.00;34.78;;;-2.30;87.50;;;;;;4979116;28;20093;-87
2021/01/12 02:42:42;;;;;;;72.82;35.63;;;-2.40;87.40;;;;;;4989613;28;20026;-87
2021/01/12 02:45:09;;;;;;;60.42;31.58;;;-2.30;87.40;;;;;;4970582;28;20018;-87
2021/01/12 02:47:35;;;;;;;65.60;34.28;;;-2.40;87.50;;;;;;4982675;28;20030;-86
2021/01/12 02:50:04;;;;;;;65.20;34.22;;;-2.40;87.50;;;;;;4983942;28;20053;-86
2021/01/12 02:52:30;;;;;;;69.43;34.33;;;-2.30;87.30;;;;;;4988081;28;20383;-86
2021/01/12 02:54:55;;;;;;;61.88;32.25;;;-2.40;87.20;;;;;;4962195;28;20041;-87
2021/01/12 02:57:21;;;;;;;67.40;33.53;;;-2.30;87.40;;;;;;4984119;28;20047;-86
2021/01/12 02:59:46;;;;;;;68.18;33.90;;;-2.40;87.00;;;;;;4981689;28;20478;-87
2021/01/12 03:02:12;;;;;;;63.30;33.78;;;-2.30;87.20;;;;;;4979428;28;20038;-86
2021/01/12 03:04:38;;;;;;;62.58;32.58;;;-2.40;87.20;;;;;;4984198;28;20033;-86
2021/01/12 03:07:03;;;;;;;61.55;33.35;;;-2.30;87.20;;;;;;4987690;28;20034;-86
2021/01/12 03:09:29;;;;;;;64.15;32.50;;;-2.40;87.20;;;;;;4983267;28;20044;-85
2021/01/12 03:11:54;;;;;;;64.28;32.70;;;-2.40;87.30;;;;;;4980944;28;20168;-87
2021/01/12 03:14:21;;;;;;;63.38;33.50;;;-2.30;86.90;;;;;;4984156;28;20106;-87
2021/01/12 03:16:47;;;;;;;58.97;31.85;;;-2.30;86.90;;;;;;4968121;28;20134;-87
2021/01/12 03:19:13;;;;;;;59.90;31.52;;;-2.30;86.60;;;;;;4977767;28;20105;-86
2021/01/12 03:21:39;;;;;;;62.03;33.70;;;-2.20;86.60;;;;;;4978003;28;20018;-86
2021/01/12 03:24:06;;;;;;;67.53;35.10;;;-2.30;86.60;;;;;;4980177;28;20025;-87
2021/01/12 03:26:32;;;;;;;65.45;33.22;;;-2.30;86.70;;;;;;4979055;28;20054;-87
2021/01/12 03:28:57;;;;;;;66.50;33.65;;;-2.20;86.50;;;;;;4980809;28;20046;-86
2021/01/12 03:31:23;;;;;;;58.67;31.85;;;-2.20;86.30;;;;;;4977135;28;20142;-87
2021/01/12 03:33:49;;;;;;;62.72;31.77;;;-2.30;86.00;;;;;;4981833;28;20038;-87
2021/01/12 03:36:14;;;;;;;66.38;33.00;;;-2.20;86.30;;;;;;4979978;28;20042;-87
2021/01/12 03:38:40;;;;;;;61.67;32.05;;;-2.20;86.00;;;;;;4983606;28;20027;-86
2021/01/12 03:41:06;;;;;;;62.00;30.98;;;-2.20;86.20;;;;;;4979608;28;20022;-87
2021/01/12 03:43:31;;;;;;;61.95;32.72;;;-2.20;86.20;;;;;;4977400;28;20102;-86
2021/01/12 03:45:57;;;;;;;56.85;30.65;;;-2.30;86.30;;;;;;4988165;28;20022;-86
2021/01/12 03:48:23;;;;;;;60.45;31.38;;;-2.30;86.10;;;;;;4982653;28;20037;-87
2021/01/12 03:50:49;;;;;;;57.92;30.67;;;-2.30;86.30;;;;;;4980744;28;20045;-88
2021/01/12 03:53:18;;;;;;;57.88;31.15;;;-2.30;86.00;;;;;;4968479;28;20402;-86
2021/01/12 03:55:44;;;;;;;57.05;31.17;;;-2.30;86.10;;;;;;4982934;28;20027;-86
2021/01/12 03:58:09;;;;;;;59.00;31.05;;;-2.40;86.10;;;;;;4981886;28;20038;-86
2021/01/12 04:00:35;;;;;;;58.83;30.63;;;-2.40;86.30;;;;;;4976209;28;20030;-86
2021/01/12 04:03:01;;;;;;;66.13;29.83;;;-2.40;86.30;;;;;;4985199;28;20533;-86
2021/01/12 04:05:30;;;;;;;56.22;28.58;;;-2.40;86.30;;;;;;4981674;28;20489;-87
2021/01/12 04:07:58;;;;;;;50.97;26.88;;;-2.40;86.20;;;;;;4988968;28;20080;-87
2021/01/12 04:10:24;;;;;;;54.80;29.85;;;-2.40;86.20;;;;;;4978413;28;20481;-87
2021/01/12 04:12:49;;;;;;;50.78;28.38;;;-2.40;86.30;;;;;;4982365;28;20073;-85
2021/01/12 04:15:15;;;;;;;56.78;28.75;;;-2.40;86.40;;;;;;4978941;28;20042;-87
2021/01/12 04:17:41;;;;;;;57.33;29.10;;;-2.40;86.20;;;;;;4983369;28;20031;-87
2021/01/12 04:20:07;;;;;;;50.28;26.70;;;-2.30;85.90;;;;;;4973385;28;20027;-87
2021/01/12 04:22:33;;;;;;;52.10;27.88;;;-2.30;85.70;;;;;;4974220;28;20034;-87
2021/01/12 04:24:58;;;;;;;49.58;27.38;;;-2.30;85.60;;;;;;4972421;28;20097;-87
2021/01/12 04:27:24;;;;;;;52.67;27.77;;;-2.30;85.70;;;;;;4987779;28;20100;-86
2021/01/12 04:29:49;;;;;;;47.38;26.67;;;-2.30;85.30;;;;;;4982999;28;20054;-86
2021/01/12 04:32:15;;;;;;;54.47;28.23;;;-2.20;85.40;;;;;;4985548;28;20022;-87
2021/01/12 04:34:41;;;;;;;53.35;27.63;;;-2.20;85.60;;;;;;4978651;28;20050;-87
2021/01/12 04:37:06;;;;;;;48.17;27.08;;;-2.20;85.30;;;;;;4979112;28;20512;-86
2021/01/12 04:39:32;;;;;;;50.08;27.02;;;-2.10;85.30;;;;;;4979329;28;20029;-86
2021/01/12 04:41:58;;;;;;;52.10;27.42;;;-2.10;85.80;;;;;;4984884;28;20168;-86
2021/01/12 04:44:23;;;;;;;49.22;27.88;;;-2.10;84.90;;;;;;4983502;28;20492;-86
2021/01/12 04:46:49;;;;;;;52.25;27.92;;;-2.10;85.20;;;;;;4978967;28;20045;-87
2021/01/12 04:49:15;;;;;;;49.97;25.85;;;-2.10;85.10;;;;;;4977762;28;20026;-87
2021/01/12 04:51:42;;;;;;;52.35;26.42;;;-2.10;84.40;;;;;;4987286;28;20026;-86
2021/01/12 04:54:07;;;;;;;49.50;27.63;;;-2.00;84.50;;;;;;4986703;28;20374;-86
2021/01/12 04:56:34;;;;;;;49.47;26.48;;;-2.00;84.30;;;;;;4984179;28;20129;-86
2021/01/12 04:58:59;;;;;;;45.05;25.00;;;-1.90;84.20;;;;;;4983632;28;20030;-86
2021/01/12 05:01:29;;;;;;;47.85;26.90;;;-1.90;83.80;;;;;;4972620;28;20022;-86
2021/01/12 05:03:55;;;;;;;53.50;28.10;;;-2.00;84.00;;;;;;4983213;28;20055;-87
2021/01/12 05:06:25;;;;;;;49.53;27.55;;;-1.90;83.90;;;;;;4986808;28;20034;-87
2021/01/12 05:08:55;;;;;;;57.47;26.67;;;-1.80;84.60;;;;;;4985135;28;20019;-87
2021/01/12 05:11:33;;;;;;;47.58;24.92;;;-1.80;83.90;;;;;;4983208;28;20117;-87
2021/01/12 05:14:21;;;;;;;52.83;26.90;;;-1.90;83.50;;;;;;4978615;28;20027;-86
2021/01/12 05:16:57;;;;;;;51.80;27.48;;;-1.90;84.00;;;;;;4986567;28;20031;-86
2021/01/12 05:19:30;;;;;;;56.72;28.15;;;-1.90;83.80;;;;;;4978248;28;20541;-85
2021/01/12 05:22:03;;;;;;;52.97;29.15;;;-1.90;84.00;;;;;;4978811;28;20110;-87
2021/01/12 05:24:38;;;;;;;51.85;26.55;;;-1.80;83.90;;;;;;4982880;28;20031;-86
2021/01/12 05:27:09;;;;;;;48.70;26.83;;;-1.90;83.80;;;;;;4985786;28;20022;-87
2021/01/12 05:29:35;;;;;;;;;;;-1.80;83.60;;;;;;4985137;28;20046;-87
2021/01/12 05:32:05;;;;;;;52.30;27.65;;;-1.90;83.60;;;;;;4985098;28;19913;-86
2021/01/12 05:34:35;;;;;;;52.30;27.88;;;-1.80;83.90;;;;;;4987630;28;20018;-87
2021/01/12 05:37:04;;;;;;;53.73;27.20;;;-1.80;83.80;;;;;;4980442;28;20085;-86
2021/01/12 05:39:41;;;;;;;52.47;27.20;;;-1.80;84.00;;;;;;4983377;28;20109;-87
2021/01/12 05:42:08;;;;;;;56.20;29.25;;;-1.80;83.80;;;;;;4987163;28;20057;-86
2021/01/12 05:44:41;;;;;;;54.95;28.13;;;-1.80;83.80;;;;;;4986735;28;20069;-86
2021/01/12 05:47:13;;;;;;;53.47;27.98;;;-1.80;83.70;;;;;;4988784;28;20027;-87
2021/01/12 05:49:43;;;;;;;45.40;25.15;;;-1.80;83.80;;;;;;4961767;28;20449;-86
2021/01/12 05:52:10;;;;;;;49.53;26.80;;;-1.70;83.30;;;;;;4987679;28;20486;-87
2021/01/12 05:54:36;;;;;;;54.80;28.48;;;-1.70;83.40;;;;;;4985405;28;20030;-87
2021/01/12 05:57:04;;;;;;;55.33;28.17;;;-1.80;84.00;;;;;;4985082;28;20450;-87
2021/01/12 05:59:32;;;;;;;57.47;29.35;;;-1.80;83.50;;;;;;4984551;28;20131;-87
2021/01/12 06:02:16;;;;;;;54.90;28.23;;;-1.80;83.90;;;;;;4981468;28;20113;-87
2021/01/12 06:04:44;;;;;;;52.38;28.60;;;-1.70;83.40;;;;;;4967781;28;20124;-86
2021/01/12 06:07:11;;;;;;;51.72;29.55;;;-1.80;83.50;;;;;;4986867;28;20066;-86
2021/01/12 06:09:37;;;;;;;54.90;29.10;;;-1.70;83.70;;;;;;4986577;28;20478;-87
2021/01/12 06:12:04;;;;;;;59.67;31.02;;;-1.70;83.70;;;;;;4971338;28;20057;-87
2021/01/12 06:14:31;;;;;;;55.08;29.00;;;-1.70;83.40;;;;;;4986865;28;20029;-87
2021/01/12 06:16:58;;;;;;;59.17;30.58;;;-1.70;83.50;;;;;;4971275;28;20073;-87
2021/01/12 06:19:30;;;;;;;56.17;29.90;;;-1.70;83.20;;;;;;4986291;28;20474;-86
2021/01/12 06:21:56;;;;;;;61.00;30.80;;;-1.70;83.40;;;;;;4989424;28;20042;-87
2021/01/12 06:24:36;;;;;;;61.42;31.13;;;-1.60;83.30;;;;;;4990670;28;20038;-86
2021/01/12 06:27:06;;;;;;;;;;;-1.60;83.70;;;;;;4984765;28;20030;-87
2021/01/12 06:29:33;;;;;;;61.72;30.95;;;-1.60;83.30;;;;;;4989098;28;19910;-87
2021/01/12 06:31:59;;;;;;;61.90;30.48;;;-1.60;83.70;;;;;;4985797;28;20030;-87
2021/01/12 06:34:25;;;;;;;57.47;28.85;;;-1.60;83.60;;;;;;4972724;28;20038;-86
2021/01/12 06:36:53;;;;;;;56.72;29.88;;;-1.60;83.60;;;;;;4985322;28;20031;-87
2021/01/12 06:39:34;;;;;;;58.58;28.65;;;-1.50;83.20;;;;;;4980662;28;20034;-87
2021/01/12 06:42:04;;;;;;;60.03;28.85;;;-1.50;83.60;;;;;;4981355;28;20499;-87
2021/01/12 06:44:36;;;;;;;57.93;30.47;;;-1.50;83.60;;;;;;4983417;28;20426;-86
2021/01/12 06:47:07;;;;;;;57.22;30.08;;;-1.40;83.00;;;;;;4988373;28;20281;-86
2021/01/12 06:49:32;;;;;;;;;;;-1.40;83.20;;;;;;4983429;28;20026;-87
2021/01/12 06:52:01;;;;;;;62.20;30.35;;;-1.40;83.40;;;;;;4978947;28;19906;-86
2021/01/12 06:54:40;;;;;;;62.88;30.30;;;-1.40;83.00;;;;;;4993160;28;20022;-87
2021/01/12 06:57:09;;;;;;;57.63;29.30;;;-1.40;83.00;;;;;;4989262;28;20604;-87
2021/01/12 06:59:46;;;;;;;60.55;31.15;;;-1.30;83.00;;;;;;4989149;28;20779;-86
2021/01/12 07:02:31;;;;;;;52.13;28.67;;;-1.30;82.70;;;;;;4971811;28;20052;-86
2021/01/12 07:05:09;;;;;;;57.65;30.38;;;-1.30;82.50;;;;;;4988769;28;20028;-86
2021/01/12 07:07:49;;;;;;;60.72;30.65;;;-1.30;82.60;;;;;;4986646;28;20045;-88
2021/01/12 07:10:17;;;;;;;62.25;31.58;;;-1.30;82.30;;;;;;4988113;28;20121;-86
2021/01/12 07:12:43;;;;;;;60.22;29.35;;;-1.30;82.40;;;;;;4990409;28;20038;-87
2021/01/12 07:15:19;;;;;;;61.42;31.05;;;-1.30;82.50;;;;;;4988948;28;20030;-86
2021/01/12 07:17:54;;;;;;;58.78;31.35;;;-1.30;83.30;;;;;;4993515;28;20051;-87
2021/01/12 07:20:27;;;;;;;58.55;30.42;;;-1.20;82.70;;;;;;4986577;28;20022;-86
2021/01/12 07:22:57;;;;;;;55.63;29.73;;;-1.20;82.60;;;;;;4996373;28;20486;-86
2021/01/12 07:25:41;;;;;;;63.53;31.73;;;-1.20;82.60;;;;;;4988533;28;20109;-87
2021/01/12 07:28:09;;;;;;;63.88;32.15;;;-1.20;82.40;;;;;;4987108;28;20048;-88
2021/01/12 07:30:36;;;;;;;61.65;33.13;;;-1.20;82.20;;;;;;4986212;28;20030;-87
2021/01/12 07:33:05;;;;;;;58.60;29.90;;;-1.10;82.70;;;;;;4983009;28;20022;-86
2021/01/12 07:35:32;;;;;;;59.83;29.85;;;-1.10;82.10;;;;;;4982799;28;20022;-87
2021/01/12 07:37:58;;;;;;;59.03;31.50;;;-1.10;81.70;;;;;;4981696;28;20042;-86
2021/01/12 07:40:24;;;;;;;55.78;30.60;;;-1.10;81.60;;;;;;4987842;28;20069;-87
2021/01/12 07:42:59;;;;;;;61.13;30.90;;;-1.00;81.40;;;;;;4977031;28;20061;-87
2021/01/12 07:45:27;;;;;;;56.40;29.77;;;-1.00;81.90;;;;;;4989113;28;20046;-85
2021/01/12 07:47:55;;;;;;;60.78;29.83;;;-1.00;81.60;;;;;;4982711;28;20477;-87
2021/01/12 07:50:21;;;;;;;64.43;31.48;;;-1.00;81.20;;;;;;4982050;28;20501;-86
2021/01/12 07:52:48;;;;;;;59.92;30.35;;;-1.00;81.50;;;;;;4967417;28;20022;-86
2021/01/12 07:55:14;;;;;;;59.17;29.77;;;-0.90;81.30;;;;;;4983670;28;20045;-91
2021/01/12 07:57:40;;;;;;;61.42;30.48;;;-0.90;81.20;;;;;;4987376;28;20034;-87
2021/01/12 08:00:08;;;;;;;57.35;29.70;;;-0.80;80.80;;;;;;4986780;28;20097;-87
2021/01/12 08:02:34;;;;;;;60.22;29.33;;;-0.80;80.70;;;;;;4983753;28;20046;-87
2021/01/12 08:05:06;;;;;;;59.58;31.15;;;-0.80;80.30;;;;;;4983114;28;20022;-87
2021/01/12 08:07:33;;;;;;;61.13;29.55;;;-0.80;80.50;;;;;;4958885;28;20041;-88
2021/01/12 08:09:59;;;;;;;61.53;31.83;;;-0.70;79.90;;;;;;4960985;28;20489;-87
2021/01/12 08:12:25;;;;;;;56.80;28.85;;;-0.60;79.90;;;;;;4960963;28;20054;-86
2021/01/12 08:14:52;;;;;;;54.13;29.85;;;-0.70;79.70;;;;;;4968324;28;20046;-87
2021/01/12 08:17:24;;;;;;;56.47;30.63;;;-0.60;80.30;;;;;;4982258;28;20144;-85
2021/01/12 08:19:50;;;;;;;58.13;29.80;;;-0.50;79.70;;;;;;4985185;28;20061;-85
2021/01/12 08:22:18;;;;;;;62.47;30.58;;;-0.50;79.70;;;;;;4970706;28;20058;-86
2021/01/12 08:24:45;;;;;;;58.33;30.98;;;-0.50;79.50;;;;;;4965998;28;20031;-85
2021/01/12 08:27:12;;;;;;;53.75;27.17;;;-0.50;79.30;;;;;;4986977;28;20562;-86
2021/01/12 08:29:39;;;;;;;58.58;31.02;;;-0.50;79.40;;;;;;4981259;28;20027;-86
2021/01/12 08:32:10;;;;;;;61.00;29.48;;;-0.50;79.30;;;;;;4980683;28;20482;-86
2021/01/12 08:34:51;;;;;;;57.63;30.30;;;-0.40;79.40;;;;;;4983724;28;20027;-85
2021/01/12 08:37:17;;;;;;;;;;;-0.40;79.00;;;;;;4988948;28;20455;-86
2021/01/12 08:39:45;;;;;;;52.90;27.45;;;-0.40;78.60;;;;;;4987588;28;20289;-86
2021/01/12 08:42:12;;;;;;;55.90;28.92;;;-0.30;78.70;;;;;;4987052;28;20049;-86
2021/01/12 08:44:42;;;;;;;56.03;28.42;;;-0.30;78.40;;;;;;4982756;28;20026;-86
2021/01/12 08:47:08;;;;;;;55.08;28.67;;;-0.30;78.00;;;;;;4986393;28;20053;-85
2021/01/12 08:49:35;;;;;;;53.25;28.02;;;-0.30;77.90;;;;;;4967164;28;20039;-85
2021/01/12 08:52:03;;;;;;;58.10;28.80;;;-0.20;77.90;;;;;;4967747;28;20026;-84
2021/01/12 08:54:29;;;;;;;55.60;29.35;;;-0.20;77.50;;;;;;4986665;28;20034;-84
2021/01/12 08:57:04;;;;;;;59.30;30.98;;;-0.20;77.40;;;;;;4983996;28;20038;-85
2021/01/12 08:59:34;;;;;;;49.67;26.48;;;-0.20;77.20;;;;;;4988197;28;20102;-85
2021/01/12 09:02:01;;;;;;;55.28;26.90;;;-0.10;77.10;;;;;;4982666;28;20057;-84
2021/01/12 09:04:28;;;;;;;50.60;26.67;;;0.00;76.90;;;;;;4980867;28;20038;-86
2021/01/12 09:07:07;;;;;;;52.17;27.92;;;0.00;76.70;;;;;;4985191;28;20030;-86
2021/01/12 09:09:34;;;;;;;54.47;27.65;;;0.00;76.80;;;;;;4983291;28;20038;-85
2021/01/12 09:12:00;;;;;;;51.70;27.67;;;0.10;76.80;;;;;;4986065;28;20026;-85
2021/01/12 09:14:31;;;;;;;49.88;26.52;;;0.30;76.80;;;;;;4983413;28;20095;-85
2021/01/12 09:17:04;;;;;;;48.70;25.60;;;0.30;76.10;;;;;;4986052;28;20045;-84
2021/01/12 09:19:37;;;;;;;59.22;28.15;;;0.40;75.80;;;;;;4985305;28;20508;-85
2021/01/12 09:22:16;;;;;;;49.47;25.35;;;0.40;75.00;;;;;;4987428;28;20033;-85
2021/01/12 09:24:53;;;;;;;56.50;25.83;;;0.40;74.40;;;;;;4984039;28;20027;-86
2021/01/12 09:27:22;;;;;;;48.72;24.05;;;0.50;74.60;;;;;;4985413;28;20019;-85
2021/01/12 09:29:48;;;;;;;51.88;26.33;;;0.50;74.60;;;;;;4986539;28;20458;-86
2021/01/12 09:32:32;;;;;;;49.50;26.13;;;0.60;75.20;;;;;;4984951;28;20022;-84
2021/01/12 09:34:59;;;;;;;42.75;23.15;;;0.60;74.50;;;;;;4981764;28;20034;-86
2021/01/12 09:37:25;;;;;;;43.97;23.52;;;0.80;74.40;;;;;;4983413;28;20121;-86
2021/01/12 09:39:52;;;;;;;46.30;23.30;;;0.80;73.00;;;;;;4985016;28;20034;-85
2021/01/12 09:42:20;;;;;;;45.58;23.73;;;0.90;72.90;;;;;;4985608;28;20513;-85
2021/01/12 09:44:46;;;;;;;46.13;23.02;;;1.00;72.70;;;;;;4988169;28;20022;-85
2021/01/12 09:47:12;;;;;;;47.85;25.08;;;1.00;73.30;;;;;;4986077;28;20390;-86
2021/01/12 09:49:37;;;;;;;43.53;23.42;;;1.10;72.80;;;;;;4981024;28;20037;-85
2021/01/12 09:52:03;;;;;;;43.65;22.05;;;1.10;72.70;;;;;;4982283;28;20031;-85
2021/01/12 09:54:29;;;;;;;44.67;23.13;;;1.20;71.90;;;;;;4984365;28;20057;-85
2021/01/12 09:56:54;;;;;;;44.80;20.85;;;1.20;70.80;;;;;;4982841;28;20046;-85
2021/01/12 09:59:20;;;;;;;41.22;22.83;;;1.10;71.30;;;;;;4983392;28;20509;-85
2021/01/12 10:01:53;;;;;;;40.88;21.05;;;1.20;71.50;;;;;;4980337;28;20035;-85
2021/01/12 10:04:19;;;;;;;36.78;20.48;;;1.30;71.50;;;;;;4967264;28;20035;-85
2021/01/12 10:06:44;;;;;;;39.42;21.08;;;1.30;70.60;;;;;;4971329;28;20088;-85
2021/01/12 10:09:10;;;;;;;40.05;21.52;;;1.40;71.10;;;;;;4968949;28;20083;-85
2021/01/12 10:11:35;;;;;;;42.33;20.73;;;1.30;70.70;;;;;;4969243;28;20548;-85
2021/01/12 10:14:01;;;;;;;42.83;22.58;;;1.50;70.60;;;;;;4951825;28;20019;-84
2021/01/12 10:16:27;;;;;;;41.20;20.65;;;1.50;71.20;;;;;;4968305;28;20053;-85
2021/01/12 10:18:53;;;;;;;40.70;20.48;;;1.50;70.40;;;;;;4970191;28;20031;-85
2021/01/12 10:21:19;;;;;;;42.60;21.48;;;1.60;70.90;;;;;;4969458;28;20489;-85
2021/01/12 10:23:46;;;;;;;41.80;21.65;;;1.60;70.10;;;;;;4966682;28;20022;-86
2021/01/12 10:26:16;;;;;;;41.38;21.63;;;1.70;70.60;;;;;;4968471;28;20027;-85
2021/01/12 10:28:42;;;;;;;40.45;22.52;;;1.80;70.80;;;;;;4967464;28;20065;-85
2021/01/12 10:31:15;;;;;;;35.08;19.25;;;1.80;69.00;;;;;;4969219;28;20505;-84
2021/01/12 10:33:42;;;;;;;38.70;20.13;;;1.80;69.00;;;;;;4969714;28;20031;-85
2021/01/12 10:36:11;;;;;;;37.75;19.70;;;1.90;68.70;;;;;;4969846;28;20050;-85
2021/01/12 10:38:36;;;;;;;45.97;20.00;;;1.90;69.30;;;;;;4967160;28;20029;-85
2021/01/12 10:41:02;;;;;;;39.05;19.85;;;1.90;68.70;;;;;;4969844;28;20038;-84
2021/01/12 10:43:28;;;;;;;37.35;20.13;;;1.90;68.80;;;;;;4967858;28;20038;-85
2021/01/12 10:45:54;;;;;;;35.95;19.33;;;1.90;69.90;;;;;;4968969;28;20475;-85
2021/01/12 10:48:20;;;;;;;39.67;21.10;;;2.00;68.20;;;;;;4967966;28;20077;-84
2021/01/12 10:50:45;;;;;;;44.72;21.92;;;2.00;68.50;;;;;;4965612;28;20446;-84
2021/01/12 10:53:11;;;;;;;41.20;21.08;;;2.00;68.40;;;;;;4968672;28;20026;-84
2021/01/12 10:55:37;;;;;;;36.97;18.80;;;2.00;68.70;;;;;;4966157;28;20859;-85
2021/01/12 10:58:03;;;;;;;40.97;22.25;;;2.00;68.70;;;;;;4966442;28;20070;-85
2021/01/12 11:00:29;;;;;;;37.88;20.00;;;2.00;69.00;;;;;;4969485;28;20031;-84
2021/01/12 11:02:55;;;;;;;36.97;19.38;;;2.10;69.40;;;;;;4975408;28;20042;-84
2021/01/12 11:05:21;;;;;;;36.60;20.25;;;2.20;69.10;;;;;;4983732;28;20481;-85
2021/01/12 11:07:47;;;;;;;41.60;21.38;;;2.20;68.40;;;;;;4984818;28;20034;-84
2021/01/12 11:10:13;;;;;;;39.22;20.48;;;2.10;68.40;;;;;;4982885;28;20023;-85
2021/01/12 11:12:38;;;;;;;40.67;22.08;;;2.10;68.40;;;;;;4985780;28;20037;-85
2021/01/12 11:15:06;;;;;;;38.75;20.75;;;2.10;68.80;;;;;;4982429;28;20236;-84
2021/01/12 11:17:33;;;;;;;37.70;20.15;;;2.10;68.60;;;;;;4982978;28;21061;-84
2021/01/12 11:20:00;;;;;;;38.45;18.77;;;2.10;68.20;;;;;;4983694;28;20058;-85
2021/01/12 11:22:29;;;;;;;41.28;21.30;;;2.10;68.20;;;;;;4984136;28;20038;-85
2021/01/12 11:25:01;;;;;;;36.00;20.00;;;2.10;68.70;;;;;;4966540;28;20027;-85
2021/01/12 11:27:28;;;;;;;33.60;20.05;;;2.20;68.60;;;;;;4969535;28;20035;-85
2021/01/12 11:29:54;;;;;;;39.22;21.35;;;2.30;67.70;;;;;;4978688;28;20023;-85
2021/01/12 11:32:21;;;;;;;38.63;21.13;;;2.30;68.10;;;;;;4979244;28;20030;-85
2021/01/12 11:34:47;;;;;;;39.13;20.83;;;2.30;68.00;;;;;;4979894;28;20066;-86
2021/01/12 11:37:14;;;;;;;36.95;20.40;;;2.40;68.10;;;;;;4979933;28;20045;-86
2021/01/12 11:39:40;;;;;;;38.88;20.77;;;2.40;68.00;;;;;;4984079;28;20022;-86
2021/01/12 11:42:13;;;;;;;39.15;20.35;;;2.40;67.90;;;;;;4980799;28;20026;-85
2021/01/12 11:44:40;;;;;;;42.00;22.30;;;2.40;67.80;;;;;;4979515;28;20618;-85
2021/01/12 11:47:06;;;;;;;41.25;21.77;;;2.50;68.10;;;;;;4978641;28;20390;-85
2021/01/12 11:49:33;;;;;;;39.50;21.33;;;2.40;68.70;;;;;;4957591;28;20521;-86
2021/01/12 11:52:02;;;;;;;43.40;23.00;;;2.50;68.30;;;;;;4978021;28;20023;-85
2021/01/12 11:54:28;;;;;;;40.50;21.77;;;2.50;67.70;;;;;;4980947;28;20026;-85
2021/01/12 11:56:57;;;;;;;43.00;21.90;;;2.50;67.80;;;;;;4980938;28;20530;-85
2021/01/12 11:59:26;;;;;;;45.63;23.30;;;2.50;67.80;;;;;;4981775;28;20014;-85
2021/01/12 12:01:54;;;;;;;41.03;22.52;;;2.50;67.60;;;;;;4977566;28;20037;-85
2021/01/12 12:04:22;;;;;;;47.25;23.30;;;2.50;67.70;;;;;;4979814;28;20565;-86
2021/01/12 12:06:52;;;;;;;41.05;21.40;;;2.60;67.20;;;;;;4983911;28;20029;-85
2021/01/12 12:09:18;;;;;;;39.67;21.17;;;2.60;67.80;;;;;;4982797;28;20037;-85
2021/01/12 12:11:45;;;;;;;41.90;22.13;;;2.60;67.90;;;;;;4967314;28;20386;-86
2021/01/12 12:14:11;;;;;;;42.90;22.15;;;2.60;67.30;;;;;;4981328;28;20035;-85
2021/01/12 12:16:37;;;;;;;39.97;21.83;;;2.60;66.80;;;;;;4965727;28;20030;-85
2021/01/12 12:19:04;;;;;;;45.35;23.38;;;2.60;67.30;;;;;;4980590;28;20029;-85
2021/01/12 12:21:31;;;;;;;38.50;22.20;;;2.60;68.10;;;;;;4984345;28;20515;-85
2021/01/12 12:23:57;;;;;;;42.58;24.05;;;2.60;67.70;;;;;;4978184;28;20034;-86
2021/01/12 12:26:23;;;;;;;44.40;23.77;;;2.60;67.70;;;;;;4982909;28;20026;-84
2021/01/12 12:28:48;;;;;;;46.28;24.23;;;2.60;67.30;;;;;;4979810;28;20497;-86
2021/01/12 12:31:15;;;;;;;44.75;23.10;;;2.60;67.40;;;;;;4978537;28;20030;-85
2021/01/12 12:33:41;;;;;;;45.00;24.42;;;2.60;67.40;;;;;;4982189;28;20471;-86
2021/01/12 12:36:11;;;;;;;46.47;24.42;;;2.60;67.30;;;;;;4981411;28;20022;-85